createdAt,value
2023-01-23T00:01:20.179Z,103011.75
2023-01-23T00:03:47.281Z,103010.16
2023-01-23T00:06:16.006Z,103024.41
2023-01-23T00:08:43.892Z,103022.69
2023-01-23T00:11:32.484Z,103016.88
2023-01-23T00:14:00.739Z,103032.13
2023-01-23T00:16:30.535Z,103026.84
2023-01-23T00:18:57.984Z,103032.41
2023-01-23T00:21:26.918Z,103032.28
2023-01-23T00:23:55.663Z,103020.72
2023-01-23T00:26:25.135Z,103023.88
2023-01-23T00:28:52.772Z,103024.75
2023-01-23T00:31:25.559Z,103016.75
2023-01-23T00:33:59.089Z,103021.31
2023-01-23T00:36:29.656Z,103026.88
2023-01-23T00:38:56.816Z,103021.75
2023-01-23T00:41:24.011Z,103025.44
2023-01-23T00:43:52.189Z,103030.00
2023-01-23T00:46:20.224Z,103037.59
2023-01-23T00:48:47.028Z,103031.72
2023-01-23T00:51:14.098Z,103040.72
2023-01-23T00:53:40.891Z,103031.28
2023-01-23T00:56:07.985Z,103031.88
2023-01-23T00:58:34.716Z,103033.88
2023-01-23T01:01:01.348Z,103038.03
2023-01-23T01:03:28.194Z,103031.31
2023-01-23T01:05:54.865Z,103039.00
2023-01-23T01:08:21.512Z,103036.00
2023-01-23T01:10:48.134Z,103044.69
2023-01-23T01:13:16.953Z,103041.28
2023-01-23T01:15:43.691Z,103045.00
2023-01-23T01:18:10.335Z,103049.25
2023-01-23T01:20:41.206Z,103055.41
2023-01-23T01:23:07.915Z,103053.56
2023-01-23T01:25:34.666Z,103050.44
2023-01-23T01:28:01.260Z,103049.00
2023-01-23T01:30:28.307Z,103052.84
2023-01-23T01:32:55.464Z,103053.13
2023-01-23T01:35:22.834Z,103061.97
2023-01-23T01:37:49.947Z,103060.41
2023-01-23T01:40:24.582Z,103069.94
2023-01-23T01:42:58.000Z,103066.97
2023-01-23T01:45:55.515Z,103061.56
2023-01-23T01:48:26.697Z,103069.81
2023-01-23T01:50:54.369Z,103072.09
2023-01-23T01:53:27.283Z,103076.97
2023-01-23T01:55:54.297Z,103070.41
2023-01-23T01:58:21.511Z,103084.94
2023-01-23T02:00:48.554Z,103082.22
2023-01-23T02:03:17.003Z,103081.69
2023-01-23T02:05:47.508Z,103078.53
2023-01-23T02:08:49.068Z,103089.41
2023-01-23T02:11:18.538Z,103080.53
2023-01-23T02:13:46.056Z,103082.28
2023-01-23T02:16:26.813Z,103083.00
2023-01-23T02:18:58.905Z,103092.69
2023-01-23T02:21:25.841Z,103088.66
2023-01-23T02:24:05.251Z,103095.38
2023-01-23T02:26:38.609Z,103098.53
2023-01-23T02:29:06.782Z,103089.41
2023-01-23T02:31:33.703Z,103091.25
2023-01-23T02:34:00.782Z,103094.69
2023-01-23T02:36:31.597Z,103095.81
2023-01-23T02:39:08.469Z,103090.81
2023-01-23T02:41:40.666Z,103100.22
2023-01-23T02:44:25.188Z,103093.25
2023-01-23T02:46:52.327Z,103108.34
2023-01-23T02:49:20.207Z,103106.09
2023-01-23T02:51:46.887Z,103110.34
2023-01-23T02:54:13.674Z,103101.53
2023-01-23T02:56:42.130Z,103106.78
2023-01-23T02:59:27.961Z,103102.09
2023-01-23T03:01:55.086Z,103111.22
2023-01-23T03:04:21.843Z,103116.78
2023-01-23T03:06:48.619Z,103102.09
2023-01-23T03:09:17.256Z,103112.53
2023-01-23T03:11:45.266Z,103107.25
2023-01-23T03:14:15.219Z,103108.94
2023-01-23T03:16:43.072Z,103108.38
2023-01-23T03:19:10.246Z,103109.50
2023-01-23T03:21:40.476Z,103107.22
2023-01-23T03:24:09.061Z,103118.09
2023-01-23T03:26:38.564Z,103124.88
2023-01-23T03:29:24.073Z,103122.78
2023-01-23T03:31:50.742Z,103117.13
2023-01-23T03:34:22.190Z,103121.91
2023-01-23T03:36:48.927Z,103138.19
2023-01-23T03:39:33.988Z,103144.41
2023-01-23T03:42:00.595Z,103145.75
2023-01-23T03:44:27.323Z,103147.25
2023-01-23T03:46:53.952Z,103144.31
2023-01-23T03:49:20.839Z,103147.31
2023-01-23T03:51:47.777Z,103149.56
2023-01-23T03:54:14.884Z,103149.78
2023-01-23T03:56:42.619Z,103157.56
2023-01-23T03:59:09.856Z,103163.34
2023-01-23T04:01:36.707Z,103162.91
2023-01-23T04:04:04.005Z,103171.00
2023-01-23T04:06:30.969Z,103167.66
2023-01-23T04:08:58.362Z,103166.69
2023-01-23T04:11:26.545Z,103177.09
2023-01-23T04:13:54.393Z,103163.56
2023-01-23T04:16:24.885Z,103173.25
2023-01-23T04:18:51.603Z,103167.13
2023-01-23T04:21:18.377Z,103172.63
2023-01-23T04:23:44.967Z,103157.44
2023-01-23T04:26:11.954Z,103167.72
2023-01-23T04:28:38.536Z,103164.69
2023-01-23T04:31:05.982Z,103157.56
2023-01-23T04:33:32.621Z,103171.84
2023-01-23T04:36:02.671Z,103170.41
2023-01-23T04:38:30.626Z,103158.38
2023-01-23T04:40:57.433Z,103166.84
2023-01-23T04:43:24.129Z,103167.22
2023-01-23T04:45:52.417Z,103162.22
2023-01-23T04:48:19.237Z,103167.75
2023-01-23T04:50:45.798Z,103168.38
2023-01-23T04:53:14.049Z,103180.63
2023-01-23T04:55:40.760Z,103180.75
2023-01-23T04:58:07.443Z,103186.88
2023-01-23T05:00:34.443Z,103187.41
2023-01-23T05:03:02.680Z,103183.47
2023-01-23T05:05:29.539Z,103181.63
2023-01-23T05:07:56.114Z,103176.22
2023-01-23T05:10:23.067Z,103185.72
2023-01-23T05:12:49.906Z,103181.03
2023-01-23T05:15:17.371Z,103186.91
2023-01-23T05:17:44.107Z,103181.03
2023-01-23T05:20:11.290Z,103193.69
2023-01-23T05:22:38.091Z,103184.47
2023-01-23T05:25:05.064Z,103175.28
2023-01-23T05:27:31.725Z,103187.91
2023-01-23T05:29:58.310Z,103183.88
2023-01-23T05:32:24.972Z,103195.41
2023-01-23T05:34:51.593Z,103193.44
2023-01-23T05:37:18.329Z,103189.41
2023-01-23T05:39:44.961Z,103201.06
2023-01-23T05:42:11.526Z,103203.38
2023-01-23T05:44:38.166Z,103195.78
2023-01-23T05:47:04.807Z,103195.16
2023-01-23T05:49:31.401Z,103210.00
2023-01-23T05:51:58.052Z,103214.28
2023-01-23T05:54:24.643Z,103214.56
2023-01-23T05:56:51.283Z,103215.28
2023-01-23T05:59:17.915Z,103208.53
2023-01-23T06:01:44.542Z,103226.09
2023-01-23T06:04:13.085Z,103223.13
2023-01-23T06:06:39.640Z,103235.66
2023-01-23T06:09:06.209Z,103234.19
2023-01-23T06:11:32.789Z,103238.59
2023-01-23T06:13:59.373Z,103241.31
2023-01-23T06:16:25.972Z,103239.13
2023-01-23T06:18:52.568Z,103236.50
2023-01-23T06:21:19.368Z,103234.66
2023-01-23T06:23:46.680Z,103241.81
2023-01-23T06:26:13.972Z,103245.00
2023-01-23T06:28:41.056Z,103256.38
2023-01-23T06:31:10.327Z,103250.78
2023-01-23T06:33:38.989Z,103245.84
2023-01-23T06:36:06.650Z,103242.53
2023-01-23T06:38:33.513Z,103240.81
2023-01-23T06:41:00.160Z,103248.06
2023-01-23T06:43:27.562Z,103249.16
2023-01-23T06:45:54.167Z,103256.91
2023-01-23T06:48:21.929Z,103251.75
2023-01-23T06:50:48.755Z,103255.41
2023-01-23T06:53:16.601Z,103268.31
2023-01-23T06:55:43.560Z,103267.44
2023-01-23T06:58:10.300Z,103267.31
2023-01-23T07:00:36.932Z,103275.28
2023-01-23T07:03:06.336Z,103282.31
2023-01-23T07:05:37.235Z,103273.69
2023-01-23T07:08:07.150Z,103274.44
2023-01-23T07:10:33.860Z,103276.53
2023-01-23T07:13:00.463Z,103266.84
2023-01-23T07:15:27.074Z,103275.41
2023-01-23T07:17:53.681Z,103278.63
2023-01-23T07:20:20.788Z,103272.00
2023-01-23T07:22:49.367Z,103269.75
2023-01-23T07:25:16.017Z,103281.81
2023-01-23T07:27:42.649Z,103288.31
2023-01-23T07:30:10.402Z,103296.56
2023-01-23T07:32:37.079Z,103294.06
2023-01-23T07:35:03.922Z,103285.97
2023-01-23T07:37:30.538Z,103280.34
2023-01-23T07:39:57.112Z,103285.50
2023-01-23T07:42:23.806Z,103286.22
2023-01-23T07:44:50.512Z,103286.22
2023-01-23T07:47:17.339Z,103283.78
2023-01-23T07:49:43.939Z,103274.09
2023-01-23T07:52:10.540Z,103286.22
2023-01-23T07:54:37.230Z,103281.94
2023-01-23T07:57:04.002Z,103284.03
2023-01-23T07:59:30.693Z,103290.28
2023-01-23T08:01:57.280Z,103288.91
2023-01-23T08:04:23.949Z,103299.47
2023-01-23T08:06:50.555Z,103299.00
2023-01-23T08:09:17.185Z,103302.53
2023-01-23T08:11:43.784Z,103310.66
2023-01-23T08:14:11.633Z,103304.38
2023-01-23T08:16:38.286Z,103316.06
2023-01-23T08:19:11.199Z,103311.63
2023-01-23T08:21:37.786Z,103318.59
2023-01-23T08:24:05.028Z,103322.28
2023-01-23T08:26:31.736Z,103333.09
2023-01-23T08:28:58.325Z,103329.66
2023-01-23T08:31:24.951Z,103331.63
2023-01-23T08:33:51.640Z,103327.09
2023-01-23T08:36:18.479Z,103330.50
2023-01-23T08:38:45.301Z,103330.28
2023-01-23T08:41:11.961Z,103332.47
2023-01-23T08:43:41.300Z,103349.91
2023-01-23T08:46:09.281Z,103358.13
2023-01-23T08:48:36.114Z,103358.00
2023-01-23T08:51:06.467Z,103366.22
2023-01-23T08:53:34.477Z,103368.72
2023-01-23T08:56:15.645Z,103371.03
2023-01-23T08:58:43.406Z,103373.13
2023-01-23T09:01:16.133Z,103372.75
2023-01-23T09:03:43.173Z,103367.94
2023-01-23T09:06:12.365Z,103372.88
2023-01-23T09:08:39.207Z,103370.63
2023-01-23T09:11:07.967Z,103382.94
2023-01-23T09:13:35.078Z,103380.47
2023-01-23T09:16:02.343Z,103376.03
2023-01-23T09:18:29.633Z,103383.91
2023-01-23T09:20:56.854Z,103388.44
2023-01-23T09:23:24.087Z,103392.13
2023-01-23T09:25:51.210Z,103393.59
2023-01-23T09:28:17.811Z,103399.00
2023-01-23T09:30:44.752Z,103391.22
2023-01-23T09:33:11.486Z,103395.56
2023-01-23T09:35:38.067Z,103394.69
2023-01-23T09:38:07.225Z,103393.72
2023-01-23T09:40:57.722Z,103393.47
2023-01-23T09:43:44.986Z,103395.06
2023-01-23T09:46:11.580Z,103396.28
2023-01-23T09:48:45.797Z,103402.31
2023-01-23T09:51:31.164Z,103389.63
2023-01-23T09:54:07.464Z,103413.22
2023-01-23T09:56:40.524Z,103398.59
2023-01-23T09:59:53.964Z,103413.06
2023-01-23T10:02:27.092Z,103403.25
2023-01-23T10:04:56.223Z,103398.84
2023-01-23T10:07:37.754Z,103405.81
2023-01-23T10:10:55.529Z,103410.25
2023-01-23T10:13:52.887Z,103403.78
2023-01-23T10:16:49.534Z,103407.53
2023-01-23T10:19:43.670Z,103409.06
2023-01-23T10:22:36.077Z,103405.53
2023-01-23T10:25:25.865Z,103400.13
2023-01-23T10:27:58.502Z,103392.03
2023-01-23T10:30:33.483Z,103412.28
2023-01-23T10:33:17.181Z,103414.38
2023-01-23T10:36:41.788Z,103410.69
2023-01-23T10:39:18.983Z,103406.50
2023-01-23T10:41:51.081Z,103412.53
2023-01-23T10:44:20.370Z,103406.38
2023-01-23T10:46:50.881Z,103412.75
2023-01-23T10:49:43.188Z,103416.31
2023-01-23T10:52:37.934Z,103413.84
2023-01-23T10:55:06.466Z,103407.69
2023-01-23T10:57:52.803Z,103410.41
2023-01-23T11:00:30.135Z,103405.00
2023-01-23T11:02:57.006Z,103404.38
2023-01-23T11:05:52.794Z,103409.28
2023-01-23T11:08:25.502Z,103401.31
2023-01-23T11:10:52.545Z,103399.84
2023-01-23T11:13:30.606Z,103398.13
2023-01-23T11:15:57.669Z,103397.03
2023-01-23T11:18:33.191Z,103394.56
2023-01-23T11:21:00.365Z,103395.44
2023-01-23T11:23:27.416Z,103398.38
2023-01-23T11:25:55.693Z,103393.72
2023-01-23T11:28:34.151Z,103392.13
2023-01-23T11:31:15.768Z,103394.69
2023-01-23T11:34:10.208Z,103397.50
2023-01-23T11:37:11.221Z,103391.72
2023-01-23T11:39:49.743Z,103390.59
2023-01-23T11:42:18.077Z,103382.50
2023-01-23T11:44:46.759Z,103383.63
2023-01-23T11:47:22.432Z,103384.34
2023-01-23T11:50:19.941Z,103383.25
2023-01-23T11:53:18.007Z,103376.13
2023-01-23T11:55:59.626Z,103373.69
2023-01-23T11:58:50.325Z,103367.06
2023-01-23T12:01:29.641Z,103374.16
2023-01-23T12:04:24.322Z,103370.97
2023-01-23T12:06:53.946Z,103368.41
2023-01-23T12:09:21.749Z,103364.09
2023-01-23T12:12:30.282Z,103370.00
2023-01-23T12:15:09.320Z,103377.25
2023-01-23T12:17:53.963Z,103378.59
2023-01-23T12:20:41.838Z,103374.81
2023-01-23T12:23:22.856Z,103377.03
2023-01-23T12:26:03.440Z,103376.78
2023-01-23T12:28:58.131Z,103376.78
2023-01-23T12:31:42.964Z,103371.38
2023-01-23T12:34:22.605Z,103367.91
2023-01-23T12:37:10.221Z,103375.16
2023-01-23T12:39:57.192Z,103367.19
2023-01-23T12:42:47.965Z,103366.56
2023-01-23T12:45:21.876Z,103356.00
2023-01-23T12:48:22.331Z,103356.88
2023-01-23T12:50:53.708Z,103354.50
2023-01-23T12:53:24.906Z,103364.31
2023-01-23T12:56:11.141Z,103367.66
2023-01-23T12:58:42.541Z,103356.88
2023-01-23T13:01:42.211Z,103355.38
2023-01-23T13:04:23.387Z,103356.13
2023-01-23T13:07:10.981Z,103368.16
2023-01-23T13:09:43.577Z,103365.19
2023-01-23T13:12:23.775Z,103358.72
2023-01-23T13:15:15.005Z,103360.75
2023-01-23T13:17:49.388Z,103361.91
2023-01-23T13:20:40.700Z,103347.50
2023-01-23T13:23:27.294Z,103354.88
2023-01-23T13:26:15.771Z,103359.53
2023-01-23T13:28:51.518Z,103351.19
2023-01-23T13:31:36.456Z,103355.13
2023-01-23T13:34:24.839Z,103357.06
2023-01-23T13:36:53.533Z,103359.97
2023-01-23T13:39:28.468Z,103359.53
2023-01-23T13:42:16.063Z,103365.31
2023-01-23T13:45:19.419Z,103367.88
2023-01-23T14:22:35.548Z,103372.31
2023-01-23T14:25:02.494Z,103372.09
2023-01-23T14:27:44.515Z,103370.56
2023-01-23T14:30:21.467Z,103370.25
2023-01-23T14:32:48.036Z,103373.94
2023-01-23T14:35:23.974Z,103378.22
2023-01-23T14:37:53.704Z,103380.31
2023-01-23T14:40:27.656Z,103385.47
2023-01-23T14:43:00.956Z,103389.00
2023-01-23T14:45:33.510Z,103391.97
2023-01-23T14:48:06.652Z,103389.59
2023-01-23T14:50:34.044Z,103388.28
2023-01-23T14:53:02.852Z,103384.72
2023-01-23T14:55:31.017Z,103389.25
2023-01-23T14:58:00.201Z,103390.13
2023-01-23T15:00:28.445Z,103393.56
2023-01-23T15:02:56.391Z,103386.78
2023-01-23T15:05:30.046Z,103388.53
2023-01-23T15:08:20.450Z,103400.19
2023-01-23T15:10:50.539Z,103393.91
2023-01-23T15:13:26.440Z,103391.31
2023-01-23T15:15:57.420Z,103391.56
2023-01-23T15:18:31.256Z,103393.63
2023-01-23T15:21:02.908Z,103396.34
2023-01-23T15:23:37.383Z,103401.97
2023-01-23T15:26:30.839Z,103402.06
2023-01-23T15:29:18.202Z,103406.59
2023-01-23T15:31:50.162Z,103404.66
2023-01-23T15:34:16.935Z,103403.81
2023-01-23T15:37:00.114Z,103412.09
2023-01-23T15:39:50.307Z,103417.06
2023-01-23T15:42:16.852Z,103412.94
2023-01-23T15:44:43.783Z,103418.03
2023-01-23T15:47:10.894Z,103422.47
2023-01-23T15:49:39.312Z,103427.63
2023-01-23T15:52:20.507Z,103424.06
2023-01-23T15:54:48.976Z,103418.41
2023-01-23T15:57:15.686Z,103423.81
2023-01-23T15:59:42.356Z,103421.53
2023-01-23T16:02:29.553Z,103430.59
2023-01-23T16:04:57.029Z,103431.59
2023-01-23T16:07:27.491Z,103436.00
2023-01-23T16:09:55.244Z,103435.25
2023-01-23T16:12:29.802Z,103442.25
2023-01-23T16:14:57.492Z,103444.91
2023-01-23T16:17:24.333Z,103449.31
2023-01-23T16:19:50.995Z,103441.69
2023-01-23T16:22:26.111Z,103452.16
2023-01-23T16:24:53.905Z,103443.31
2023-01-23T16:27:27.381Z,103435.38
2023-01-23T16:29:55.422Z,103442.22
2023-01-23T16:32:22.362Z,103438.09
2023-01-23T16:34:49.080Z,103451.28
2023-01-23T16:37:18.126Z,103456.44
2023-01-23T16:39:46.208Z,103452.25
2023-01-23T16:42:22.542Z,103460.25
2023-01-23T16:44:50.328Z,103460.47
2023-01-23T16:47:17.036Z,103467.78
2023-01-23T16:49:51.916Z,103469.44
2023-01-23T16:52:20.467Z,103463.47
2023-01-23T16:54:47.202Z,103455.38
2023-01-23T16:57:20.287Z,103454.41
2023-01-23T16:59:49.213Z,103455.63
2023-01-23T17:02:23.126Z,103457.94
2023-01-23T17:04:50.182Z,103463.47
2023-01-23T17:07:18.680Z,103468.00
2023-01-23T17:09:46.061Z,103460.16
2023-01-23T17:12:18.680Z,103480.41
2023-01-23T17:14:46.487Z,103476.84
2023-01-23T17:17:26.623Z,103465.19
2023-01-23T17:19:53.388Z,103467.03
2023-01-23T17:22:30.671Z,103480.09
2023-01-23T17:24:57.469Z,103480.50
2023-01-23T17:27:24.625Z,103475.78
2023-01-23T17:29:51.208Z,103471.91
2023-01-23T17:32:35.364Z,103478.16
2023-01-23T17:35:06.249Z,103478.78
2023-01-23T17:37:35.173Z,103473.50
2023-01-23T17:40:02.360Z,103474.22
2023-01-23T17:42:29.083Z,103468.44
2023-01-23T17:44:55.725Z,103473.63
2023-01-23T17:47:22.574Z,103475.94
2023-01-23T17:49:54.716Z,103474.22
2023-01-23T17:52:21.899Z,103480.63
2023-01-23T17:54:49.212Z,103480.72
2023-01-23T17:57:16.049Z,103474.47
2023-01-23T17:59:42.709Z,103478.03
2023-01-23T18:02:29.008Z,103462.38
2023-01-23T18:04:55.977Z,103469.53
2023-01-23T18:07:23.049Z,103473.41
2023-01-23T18:09:49.619Z,103477.06
2023-01-23T18:12:35.089Z,103487.47
2023-01-23T18:15:22.270Z,103488.31
2023-01-23T18:18:09.925Z,103487.63
2023-01-23T18:20:37.002Z,103486.50
2023-01-23T18:23:04.235Z,103489.19
2023-01-23T18:25:31.198Z,103480.31
2023-01-23T18:28:05.886Z,103479.38
2023-01-23T18:30:57.484Z,103483.44
2023-01-23T18:33:39.627Z,103480.00
2023-01-23T18:36:20.384Z,103483.44
2023-01-23T18:39:02.795Z,103494.97
2023-01-23T18:41:29.811Z,103471.66
2023-01-23T18:44:06.091Z,103476.59
2023-01-23T18:46:33.332Z,103471.22
2023-01-23T18:49:00.417Z,103467.84
2023-01-23T18:51:33.007Z,103467.97
2023-01-23T18:54:22.529Z,103457.09
2023-01-23T18:56:58.036Z,103473.63
2023-01-23T19:00:01.138Z,103477.53
2023-01-23T19:02:51.902Z,103480.97
2023-01-23T19:05:22.267Z,103477.53
2023-01-23T19:07:49.634Z,103475.00
2023-01-23T19:10:21.994Z,103486.50
2023-01-23T19:12:54.709Z,103487.22
2023-01-23T19:15:39.056Z,103488.94
2023-01-23T19:18:11.621Z,103485.38
2023-01-23T19:20:57.917Z,103482.69
2023-01-23T19:23:52.312Z,103480.09
2023-01-23T19:26:19.415Z,103476.66
2023-01-23T19:28:46.330Z,103481.09
2023-01-23T19:31:28.043Z,103475.78
2023-01-23T19:33:55.030Z,103471.34
2023-01-23T19:36:23.240Z,103471.44
2023-01-23T19:38:50.893Z,103469.94
2023-01-23T19:41:24.176Z,103465.97
2023-01-23T19:43:55.648Z,103468.66
2023-01-23T19:46:26.849Z,103470.19
2023-01-23T19:48:53.542Z,103473.00
2023-01-23T19:51:21.816Z,103478.38
2023-01-23T19:53:48.666Z,103482.94
2023-01-23T19:56:20.261Z,103488.19
2023-01-23T19:58:47.791Z,103486.56
2023-01-23T20:01:20.593Z,103481.38
2023-01-23T20:03:47.191Z,103495.19
2023-01-23T20:06:13.905Z,103491.31
2023-01-23T20:08:40.495Z,103494.88
2023-01-23T20:11:07.114Z,103491.19
2023-01-23T20:13:33.683Z,103498.25
2023-01-23T20:16:21.973Z,103492.06
2023-01-23T20:18:49.545Z,103502.00
2023-01-23T20:21:18.757Z,103504.06
2023-01-23T20:23:46.412Z,103503.94
2023-01-23T20:26:13.929Z,103509.22
2023-01-23T20:28:41.067Z,103508.38
2023-01-23T20:31:10.888Z,103512.69
2023-01-23T20:33:38.278Z,103514.72
2023-01-23T20:36:05.747Z,103509.06
2023-01-23T20:38:32.967Z,103510.78
2023-01-23T20:41:07.891Z,103510.19
2023-01-23T20:43:35.120Z,103507.50
2023-01-23T20:46:06.510Z,103515.72
2023-01-23T20:48:37.904Z,103518.41
2023-01-23T20:51:08.513Z,103513.13
2023-01-23T20:53:39.332Z,103508.94
2023-01-23T20:56:14.859Z,103523.56
2023-01-23T20:59:05.486Z,103519.28
2023-01-23T21:01:56.429Z,103517.44
2023-01-23T21:04:26.124Z,103522.84
2023-01-23T21:06:52.853Z,103535.34
2023-01-23T21:09:19.462Z,103521.00
2023-01-23T21:11:46.512Z,103531.66
2023-01-23T21:14:13.531Z,103521.75
2023-01-23T21:16:40.235Z,103509.47
2023-01-23T21:19:07.199Z,103531.50
2023-01-23T21:21:34.036Z,103519.84
2023-01-23T21:24:00.719Z,103516.25
2023-01-23T21:26:28.687Z,103519.38
2023-01-23T21:28:57.165Z,103532.97
2023-01-23T21:31:29.745Z,103530.16
2023-01-23T21:34:00.191Z,103535.69
2023-01-23T21:36:27.124Z,103516.91
2023-01-23T21:38:54.386Z,103533.72
2023-01-23T21:41:22.128Z,103530.41
2023-01-23T21:43:49.070Z,103532.75
2023-01-23T21:46:15.680Z,103539.34
2023-01-23T21:48:43.038Z,103533.84
2023-01-23T21:51:17.881Z,103537.16
2023-01-23T21:53:46.937Z,103540.09
2023-01-23T21:56:15.035Z,103534.09
2023-01-23T21:58:44.830Z,103530.63
2023-01-23T22:01:32.982Z,103536.78
2023-01-23T22:04:05.066Z,103534.47
2023-01-23T22:06:32.679Z,103541.44
2023-01-23T22:08:59.328Z,103536.91
2023-01-23T22:11:26.086Z,103523.69
2023-01-23T22:13:53.048Z,103534.19
2023-01-23T22:16:22.793Z,103522.09
2023-01-23T22:18:52.198Z,103528.56
2023-01-23T22:21:18.783Z,103536.78
2023-01-23T22:23:45.409Z,103529.84
2023-01-23T22:26:12.348Z,103533.34
2023-01-23T22:28:39.162Z,103528.81
2023-01-23T22:31:09.950Z,103519.16
2023-01-23T22:33:41.345Z,103525.53
2023-01-23T22:36:09.606Z,103518.19
2023-01-23T22:38:36.203Z,103516.56
2023-01-23T22:41:05.810Z,103522.09
2023-01-23T22:43:34.050Z,103528.22
2023-01-23T22:46:15.745Z,103525.88
2023-01-23T22:48:42.558Z,103533.75
2023-01-23T22:51:18.975Z,103528.34
2023-01-23T22:53:45.598Z,103525.66
2023-01-23T22:56:12.931Z,103524.44
2023-01-23T22:58:39.594Z,103520.72
2023-01-23T23:01:07.233Z,103515.59
2023-01-23T23:03:35.063Z,103515.81
2023-01-23T23:06:06.936Z,103516.91
2023-01-23T23:08:35.233Z,103518.09
2023-01-23T23:11:10.355Z,103522.19
2023-01-23T23:13:39.017Z,103528.56
2023-01-23T23:16:12.279Z,103529.75
2023-01-23T23:18:39.445Z,103534.28
2023-01-23T23:21:08.615Z,103531.66
2023-01-23T23:23:35.725Z,103530.06
2023-01-23T23:26:04.643Z,103539.13
2023-01-23T23:28:32.347Z,103536.44
2023-01-23T23:30:58.965Z,103532.88
2023-01-23T23:33:25.630Z,103536.56
2023-01-23T23:35:52.426Z,103527.59
2023-01-23T23:38:19.292Z,103533.84
2023-01-23T23:40:55.043Z,103539.25
2023-01-23T23:43:21.613Z,103539.38
2023-01-23T23:45:53.188Z,103538.28
2023-01-23T23:48:20.093Z,103527.59
2023-01-23T23:50:46.669Z,103535.59
2023-01-23T23:53:13.270Z,103524.78
2023-01-23T23:55:39.878Z,103523.69
2023-01-23T23:58:06.703Z,103513.03
